createdAt,value
2023-01-18T00:00:40.417Z,3.52
2023-01-18T00:04:42.111Z,3.46
2023-01-18T00:08:43.757Z,3.46
2023-01-18T00:12:45.587Z,3.45
2023-01-18T00:16:47.091Z,3.44
2023-01-18T00:20:48.622Z,3.37
2023-01-18T00:24:50.162Z,3.30
2023-01-18T00:28:51.663Z,3.26
2023-01-18T00:32:56.439Z,3.23
2023-01-18T00:36:58.196Z,3.20
2023-01-18T00:40:59.780Z,3.20
2023-01-18T00:45:01.361Z,3.20
2023-01-18T00:49:03.009Z,3.17
2023-01-18T00:53:04.672Z,3.16
2023-01-18T00:57:06.239Z,3.10
2023-01-18T01:01:09.989Z,3.05
2023-01-18T01:05:38.868Z,2.99
2023-01-18T01:09:40.393Z,2.95
2023-01-18T01:14:00.786Z,2.87
2023-01-18T01:18:20.755Z,2.87
2023-01-18T01:22:40.577Z,2.84
2023-01-18T01:26:42.804Z,2.86
2023-01-18T01:30:44.530Z,2.83
2023-01-18T01:34:46.541Z,2.77
2023-01-18T01:38:48.136Z,2.77
2023-01-18T01:42:49.839Z,2.83
2023-01-18T01:46:58.887Z,2.81
2023-01-18T01:51:00.536Z,2.79
2023-01-18T01:55:11.014Z,2.76
2023-01-18T01:59:12.782Z,2.73
2023-01-18T02:03:20.338Z,2.73
2023-01-18T02:07:24.089Z,2.69
2023-01-18T02:11:25.673Z,2.66
2023-01-18T02:15:40.131Z,2.66
2023-01-18T02:20:19.507Z,2.62
2023-01-18T02:24:39.165Z,2.68
2023-01-18T02:28:44.630Z,2.66
2023-01-18T02:32:48.963Z,2.63
2023-01-18T02:37:12.723Z,2.66
2023-01-18T02:41:21.864Z,2.65
2023-01-18T02:45:59.951Z,2.65
2023-01-18T02:50:02.848Z,2.65
2023-01-18T02:54:08.899Z,2.68
2023-01-18T02:58:33.139Z,2.66
2023-01-18T03:02:35.007Z,2.69
2023-01-18T03:06:38.079Z,2.69
2023-01-18T03:10:49.076Z,2.71
2023-01-18T03:15:10.490Z,2.69
2023-01-18T03:19:36.042Z,2.71
2023-01-18T03:23:42.338Z,2.77
2023-01-18T03:28:05.630Z,2.79
2023-01-18T03:32:35.769Z,2.79
2023-01-18T03:36:43.221Z,2.76
2023-01-18T03:40:44.851Z,2.79
2023-01-18T03:44:52.413Z,2.74
2023-01-18T03:48:54.018Z,2.77
2023-01-18T03:52:59.369Z,2.76
2023-01-18T03:57:06.970Z,2.77
2023-01-18T04:01:09.311Z,2.76
2023-01-18T04:05:11.258Z,2.77
2023-01-18T04:09:12.929Z,2.76
2023-01-18T04:13:14.689Z,2.74
2023-01-18T04:17:17.176Z,2.74
2023-01-18T04:21:18.751Z,2.79
2023-01-18T04:25:20.670Z,2.77
2023-01-18T04:29:22.262Z,2.77
2023-01-18T04:33:26.613Z,2.76
2023-01-18T04:37:34.017Z,2.76
2023-01-18T04:41:35.636Z,2.74
2023-01-18T04:45:37.329Z,2.76
2023-01-18T04:49:38.839Z,2.77
2023-01-18T04:53:42.172Z,2.77
2023-01-18T04:57:44.549Z,2.73
2023-01-18T05:01:46.183Z,2.71
2023-01-18T05:05:47.823Z,2.71
2023-01-18T05:09:49.388Z,2.63
2023-01-18T05:13:50.978Z,2.55
2023-01-18T05:17:52.555Z,2.44
2023-01-18T05:21:54.088Z,2.38
2023-01-18T05:25:57.234Z,2.33
2023-01-18T05:29:59.555Z,2.29
2023-01-18T05:34:01.098Z,2.30
2023-01-18T05:38:02.668Z,2.30
2023-01-18T05:42:05.673Z,2.23
2023-01-18T05:46:07.300Z,2.18
2023-01-18T05:50:10.092Z,2.14
2023-01-18T05:54:12.068Z,2.09
2023-01-18T05:58:13.681Z,2.05
2023-01-18T06:02:15.435Z,2.00
2023-01-18T06:06:17.170Z,2.00
2023-01-18T06:10:19.029Z,1.98
2023-01-18T06:14:20.611Z,2.00
2023-01-18T06:18:24.273Z,2.02
2023-01-18T06:22:25.798Z,2.02
2023-01-18T06:26:27.536Z,2.02
2023-01-18T06:30:29.124Z,2.02
2023-01-18T06:34:30.636Z,2.04
2023-01-18T06:38:32.173Z,2.05
2023-01-18T06:42:33.758Z,2.08
2023-01-18T06:46:35.330Z,2.12
2023-01-18T06:50:36.939Z,2.19
2023-01-18T06:54:38.568Z,2.20
2023-01-18T06:58:40.590Z,2.23
2023-01-18T07:02:42.106Z,2.27
2023-01-18T07:06:43.587Z,2.30
2023-01-18T07:10:45.111Z,2.37
2023-01-18T07:14:46.994Z,2.40
2023-01-18T07:18:49.520Z,2.37
2023-01-18T07:22:52.618Z,2.33
2023-01-18T07:26:54.785Z,2.32
2023-01-18T07:30:56.449Z,2.27
2023-01-18T07:34:59.502Z,2.29
2023-01-18T07:39:04.930Z,2.32
2023-01-18T07:43:06.447Z,2.38
2023-01-18T07:47:08.020Z,2.41
2023-01-18T07:51:10.207Z,2.48
2023-01-18T07:55:11.709Z,2.47
2023-01-18T07:59:13.269Z,2.53
2023-01-18T08:03:17.221Z,2.53
2023-01-18T08:07:18.859Z,2.55
2023-01-18T08:11:20.532Z,2.58
2023-01-18T08:15:22.111Z,2.61
2023-01-18T08:19:23.720Z,2.63
2023-01-18T08:23:25.670Z,2.65
2023-01-18T08:27:27.527Z,2.66
2023-01-18T08:31:29.041Z,2.63
2023-01-18T08:35:33.428Z,2.65
2023-01-18T08:39:34.941Z,2.65
2023-01-18T08:43:36.705Z,2.62
2023-01-18T08:47:38.243Z,2.62
2023-01-18T08:51:39.789Z,2.66
2023-01-18T08:55:41.393Z,2.65
2023-01-18T08:59:42.908Z,2.68
2023-01-18T09:03:45.131Z,2.66
2023-01-18T09:07:47.467Z,2.63
2023-01-18T09:11:52.467Z,2.65
2023-01-18T09:16:09.513Z,2.62
2023-01-18T09:20:11.996Z,2.66
2023-01-18T09:24:13.551Z,2.65
2023-01-18T09:28:16.993Z,2.69
2023-01-18T09:32:19.985Z,2.76
2023-01-18T09:36:26.459Z,2.83
2023-01-18T09:40:44.060Z,2.90
2023-01-18T09:44:48.269Z,2.92
2023-01-18T09:48:55.863Z,2.94
2023-01-18T09:53:46.624Z,2.94
2023-01-18T09:58:09.418Z,2.94
2023-01-18T10:02:18.809Z,2.98
2023-01-18T10:06:53.313Z,2.95
2023-01-18T10:11:09.570Z,2.97
2023-01-18T10:15:20.552Z,3.01
2023-01-18T10:19:27.265Z,2.99
2023-01-18T10:23:44.271Z,3.01
2023-01-18T10:28:25.369Z,3.07
2023-01-18T10:32:28.220Z,3.12
2023-01-18T10:36:39.182Z,3.19
2023-01-18T10:40:42.627Z,3.28
2023-01-18T10:44:44.994Z,3.37
2023-01-18T10:48:51.913Z,3.44
2023-01-18T10:52:53.556Z,3.56
2023-01-18T10:57:03.697Z,3.59
2023-01-18T11:01:06.616Z,3.62
2023-01-18T11:05:33.132Z,3.70
2023-01-18T11:09:34.625Z,3.81
2023-01-18T11:13:39.249Z,3.82
2023-01-18T11:17:44.292Z,3.88
2023-01-18T11:21:51.612Z,3.93
2023-01-18T11:26:04.167Z,4.00
2023-01-18T11:30:21.916Z,3.99
2023-01-18T11:34:32.387Z,4.04
2023-01-18T11:38:34.781Z,4.07
2023-01-18T11:42:37.996Z,4.07
2023-01-18T11:46:46.133Z,4.11
2023-01-18T11:50:57.107Z,4.17
2023-01-18T11:55:05.360Z,4.20
2023-01-18T11:59:28.112Z,4.24
2023-01-18T12:03:57.221Z,4.24
2023-01-18T12:08:10.878Z,4.17
2023-01-18T12:12:31.255Z,4.14
2023-01-18T12:16:51.847Z,4.13
2023-01-18T12:21:12.350Z,4.20
2023-01-18T12:25:47.951Z,4.25
2023-01-18T12:30:09.250Z,4.31
2023-01-18T12:34:17.993Z,4.28
2023-01-18T12:38:31.551Z,4.32
2023-01-18T12:43:00.674Z,4.42
2023-01-18T12:47:27.360Z,4.47
2023-01-18T12:51:34.169Z,4.47
2023-01-18T12:55:38.224Z,4.49
2023-01-18T12:59:54.135Z,4.56
2023-01-18T13:04:01.838Z,4.62
2023-01-18T13:08:11.632Z,4.68
2023-01-18T13:12:14.222Z,4.80
2023-01-18T13:16:40.107Z,4.88
2023-01-18T13:21:09.732Z,4.94
2023-01-18T13:25:20.129Z,4.91
2023-01-18T13:29:28.408Z,4.84
2023-01-18T13:33:35.856Z,4.91
2023-01-18T13:37:42.981Z,4.96
2023-01-18T13:42:03.439Z,5.04
2023-01-18T13:46:08.135Z,4.99
2023-01-18T13:50:28.034Z,5.01
2023-01-18T13:54:29.494Z,5.01
2023-01-18T13:58:33.947Z,5.08
2023-01-18T14:02:43.972Z,5.09
2023-01-18T14:06:46.776Z,5.12
2023-01-18T14:10:53.101Z,5.12
2023-01-18T14:14:58.826Z,5.15
2023-01-18T14:19:15.713Z,5.19
2023-01-18T14:23:29.697Z,5.14
2023-01-18T14:27:39.235Z,5.09
2023-01-18T14:31:45.581Z,5.06
2023-01-18T14:35:52.187Z,5.01
2023-01-18T14:40:12.700Z,4.99
2023-01-18T14:44:21.447Z,4.91
2023-01-18T14:48:24.925Z,4.86
2023-01-18T14:52:33.937Z,4.83
2023-01-18T14:56:42.928Z,4.79
2023-01-18T15:00:47.993Z,4.75
2023-01-18T15:04:49.626Z,4.71
2023-01-18T15:08:52.310Z,4.71
2023-01-18T15:12:58.412Z,4.68
2023-01-18T15:17:02.078Z,4.64
2023-01-18T15:21:06.293Z,4.56
2023-01-18T15:25:25.245Z,4.54
2023-01-18T15:29:31.332Z,4.50
2023-01-18T15:33:34.761Z,4.44
2023-01-18T15:37:37.623Z,4.36
2023-01-18T15:41:42.253Z,4.34
2023-01-18T15:45:49.440Z,4.26
2023-01-18T15:49:53.326Z,4.17
2023-01-18T15:53:56.436Z,4.16
2023-01-18T15:58:04.637Z,4.10
2023-01-18T16:02:09.295Z,4.02
2023-01-18T16:06:16.808Z,3.96
2023-01-18T16:10:18.340Z,3.90
2023-01-18T16:14:28.964Z,3.82
2023-01-18T16:18:30.697Z,3.77
2023-01-18T16:22:38.560Z,3.71
2023-01-18T16:26:42.162Z,3.64
2023-01-18T16:30:50.475Z,3.59
2023-01-18T16:34:53.256Z,3.54
2023-01-18T16:38:55.158Z,3.46
2023-01-18T16:43:07.437Z,3.45
2023-01-18T16:47:16.606Z,3.41
2023-01-18T16:51:18.423Z,3.34
2023-01-18T16:55:21.129Z,3.31
2023-01-18T16:59:22.952Z,3.23
2023-01-18T17:03:24.970Z,3.15
2023-01-18T17:07:26.514Z,3.13
2023-01-18T17:11:28.131Z,3.08
2023-01-18T17:15:32.390Z,3.01
2023-01-18T17:19:34.499Z,2.95
2023-01-18T17:23:36.219Z,2.89
2023-01-18T17:27:37.877Z,2.84
2023-01-18T17:31:48.027Z,2.79
2023-01-18T17:35:54.702Z,2.77
2023-01-18T17:40:12.109Z,2.73
2023-01-18T17:44:20.578Z,2.62
2023-01-18T17:48:26.106Z,2.58
2023-01-18T17:52:28.117Z,2.51
2023-01-18T17:56:29.701Z,2.51
2023-01-18T18:00:31.659Z,2.41
2023-01-18T18:04:33.203Z,2.36
2023-01-18T18:08:35.400Z,2.36
2023-01-18T18:12:37.128Z,2.38
2023-01-18T18:16:43.577Z,2.37
2023-01-18T18:20:45.572Z,2.37
2023-01-18T18:24:48.311Z,2.33
2023-01-18T18:28:49.932Z,2.32
2023-01-18T18:32:51.494Z,2.29
2023-01-18T18:36:53.202Z,2.27
2023-01-18T18:40:54.907Z,2.23
2023-01-18T18:44:56.880Z,2.19
2023-01-18T18:48:58.387Z,2.11
2023-01-18T18:53:00.463Z,2.07
2023-01-18T18:57:03.334Z,2.07
2023-01-18T19:01:06.137Z,2.00
2023-01-18T19:05:08.567Z,1.98
2023-01-18T19:09:10.100Z,1.93
2023-01-18T19:13:11.756Z,1.93
2023-01-18T19:17:18.623Z,1.92
2023-01-18T19:21:26.815Z,1.82
2023-01-18T19:25:28.478Z,1.79
2023-01-18T19:29:30.138Z,1.71
2023-01-18T19:33:31.845Z,1.57
2023-01-18T19:37:33.628Z,1.54
2023-01-18T19:41:35.238Z,1.56
2023-01-18T19:45:37.688Z,1.50
2023-01-18T19:49:40.727Z,1.56
2023-01-18T19:53:42.291Z,1.60
2023-01-18T19:57:44.052Z,1.63
2023-01-18T20:01:45.901Z,1.63
2023-01-18T20:05:47.603Z,1.60
2023-01-18T20:09:49.297Z,1.57
2023-01-18T20:13:51.540Z,1.54
2023-01-18T20:17:53.169Z,1.57
2023-01-18T20:21:54.883Z,1.56
2023-01-18T20:25:57.149Z,1.54
2023-01-18T20:29:59.040Z,1.54
2023-01-18T20:34:00.695Z,1.54
2023-01-18T20:38:02.324Z,1.56
2023-01-18T20:42:04.104Z,1.52
2023-01-18T20:46:08.475Z,1.49
2023-01-18T20:50:10.358Z,1.46
2023-01-18T20:54:11.925Z,1.50
2023-01-18T20:58:13.573Z,1.44
2023-01-18T21:02:15.225Z,1.44
2023-01-18T21:06:16.903Z,1.39
2023-01-18T21:10:18.615Z,1.39
2023-01-18T21:14:20.275Z,1.38
2023-01-18T21:18:21.879Z,1.35
2023-01-18T21:22:23.453Z,1.29
2023-01-18T21:26:25.103Z,1.29
2023-01-18T21:30:26.710Z,1.31
2023-01-18T21:34:28.326Z,1.26
2023-01-18T21:38:30.315Z,1.24
2023-01-18T21:42:51.138Z,1.25
2023-01-18T21:46:52.840Z,1.17
2023-01-18T21:51:24.781Z,1.18
2023-01-18T21:55:26.358Z,1.20
2023-01-18T21:59:28.039Z,1.18
2023-01-18T22:03:29.643Z,1.17
2023-01-18T22:07:34.160Z,1.18
2023-01-18T22:11:35.981Z,1.17
2023-01-18T22:15:37.632Z,1.16
2023-01-18T22:19:39.935Z,1.16
2023-01-18T22:23:41.589Z,1.16
2023-01-18T22:27:43.192Z,1.16
2023-01-18T22:31:44.721Z,1.14
2023-01-18T22:35:46.335Z,1.10
2023-01-18T22:39:47.877Z,1.08
2023-01-18T22:43:49.672Z,1.06
2023-01-18T22:47:51.319Z,1.08
2023-01-18T22:51:52.866Z,1.07
2023-01-18T22:55:55.331Z,1.02
2023-01-18T22:59:56.986Z,1.00
2023-01-18T23:04:00.946Z,0.98
2023-01-18T23:08:07.890Z,0.96
2023-01-18T23:12:09.939Z,0.98
2023-01-18T23:16:33.114Z,0.95
2023-01-18T23:20:35.920Z,0.93
2023-01-18T23:24:38.715Z,0.92
2023-01-18T23:28:43.774Z,0.89
2023-01-18T23:32:45.292Z,0.89
2023-01-18T23:36:46.798Z,0.86
2023-01-18T23:41:06.957Z,0.81
2023-01-18T23:45:29.021Z,0.81
2023-01-18T23:49:49.173Z,0.81
2023-01-18T23:54:09.078Z,0.78
2023-01-18T23:58:10.954Z,0.75
